createdAt,value
2022-11-01T00:02:05.598Z,12.81
2022-11-01T00:04:32.456Z,12.87
2022-11-01T00:06:59.285Z,12.95
2022-11-01T00:09:26.060Z,13.02
2022-11-01T00:11:52.863Z,13.05
2022-11-01T00:14:20.469Z,13.07
2022-11-01T00:16:47.292Z,13.11
2022-11-01T00:19:14.616Z,13.05
2022-11-01T00:21:41.443Z,13.07
2022-11-01T00:24:08.372Z,13.00
2022-11-01T00:26:35.497Z,12.96
2022-11-01T00:29:02.325Z,12.98
2022-11-01T00:31:29.652Z,12.97
2022-11-01T00:33:56.843Z,12.95
2022-11-01T00:36:24.450Z,12.97
2022-11-01T00:38:52.486Z,12.91
2022-11-01T00:41:21.636Z,12.87
2022-11-01T00:43:49.103Z,12.84
2022-11-01T00:46:17.087Z,12.85
2022-11-01T00:48:44.140Z,12.82
2022-11-01T00:51:11.002Z,12.89
2022-11-01T00:53:37.988Z,12.81
2022-11-01T00:56:06.852Z,12.88
2022-11-01T00:58:34.014Z,12.90
2022-11-01T01:01:01.168Z,12.92
2022-11-01T01:03:28.086Z,12.85
2022-11-01T01:05:56.147Z,12.88
2022-11-01T01:08:23.625Z,12.88
2022-11-01T01:10:50.957Z,12.92
2022-11-01T01:13:18.072Z,12.93
2022-11-01T01:15:45.347Z,12.93
2022-11-01T01:18:12.531Z,12.95
2022-11-01T01:20:39.435Z,12.96
2022-11-01T01:23:06.490Z,12.72
2022-11-01T01:25:33.266Z,12.59
2022-11-01T01:28:00.338Z,12.61
2022-11-01T01:30:27.387Z,12.61
2022-11-01T01:32:54.167Z,12.54
2022-11-01T01:35:20.936Z,12.52
2022-11-01T01:37:47.707Z,12.55
2022-11-01T01:40:14.576Z,12.51
2022-11-01T01:42:43.300Z,12.42
2022-11-01T01:45:36.448Z,12.46
2022-11-01T01:48:26.213Z,12.51
2022-11-01T01:51:04.519Z,12.45
2022-11-01T01:53:45.232Z,12.43
2022-11-01T01:56:18.239Z,12.43
2022-11-01T01:58:54.880Z,12.38
2022-11-01T02:01:22.213Z,12.40
2022-11-01T02:03:49.930Z,12.42
2022-11-01T02:06:19.729Z,12.40
2022-11-01T02:08:50.368Z,12.38
2022-11-01T02:11:19.052Z,12.14
2022-11-01T02:13:46.359Z,12.11
2022-11-01T02:17:01.871Z,12.17
2022-11-01T02:19:56.656Z,12.18
2022-11-01T02:25:45.110Z,12.07
2022-11-01T02:29:08.155Z,12.12
2022-11-01T02:31:58.659Z,11.90
2022-11-01T02:34:44.420Z,11.79
2022-11-01T02:37:35.370Z,11.91
2022-11-01T02:40:24.600Z,11.88
2022-11-01T02:42:59.109Z,11.84
2022-11-01T02:45:37.374Z,11.84
2022-11-01T02:48:05.627Z,11.79
2022-11-01T02:50:56.300Z,11.76
2022-11-01T02:53:23.964Z,11.66
2022-11-01T02:55:54.197Z,11.70
2022-11-01T02:58:28.775Z,11.59
2022-11-01T03:00:56.929Z,11.49
2022-11-01T03:03:34.171Z,11.49
2022-11-01T03:06:00.887Z,11.50
2022-11-01T03:08:46.913Z,11.50
2022-11-01T03:11:18.479Z,11.37
2022-11-01T03:14:04.720Z,11.33
2022-11-01T03:17:04.431Z,11.32
2022-11-01T03:19:40.314Z,11.29
2022-11-01T03:22:45.123Z,11.25
2022-11-01T03:25:41.661Z,11.26
2022-11-01T03:28:21.530Z,11.21
2022-11-01T03:31:02.222Z,11.15
2022-11-01T03:33:30.694Z,11.09
2022-11-01T03:36:03.475Z,10.92
2022-11-01T03:38:37.804Z,10.92
2022-11-01T03:41:09.606Z,10.96
2022-11-01T03:43:36.993Z,10.94
2022-11-01T03:46:05.152Z,10.94
2022-11-01T03:48:31.951Z,10.91
2022-11-01T03:50:58.770Z,10.86
2022-11-01T03:53:25.737Z,10.81
2022-11-01T03:55:52.545Z,10.78
2022-11-01T03:58:19.800Z,10.84
2022-11-01T04:00:47.203Z,10.76
2022-11-01T04:03:14.184Z,10.63
2022-11-01T04:05:42.493Z,10.59
2022-11-01T04:08:11.381Z,10.48
2022-11-01T04:10:38.323Z,10.50
2022-11-01T04:13:05.630Z,10.50
2022-11-01T04:15:51.016Z,10.49
2022-11-01T04:18:42.153Z,10.40
2022-11-01T04:21:11.025Z,10.46
2022-11-01T04:23:38.079Z,10.48
2022-11-01T04:26:07.185Z,10.56
2022-11-01T04:28:34.144Z,10.48
2022-11-01T04:31:00.952Z,10.42
2022-11-01T04:33:27.771Z,10.33
2022-11-01T04:35:54.573Z,10.37
2022-11-01T04:38:21.724Z,10.27
2022-11-01T04:40:48.513Z,10.17
2022-11-01T04:43:16.225Z,10.13
2022-11-01T04:45:43.064Z,10.15
2022-11-01T04:48:13.505Z,10.12
2022-11-01T04:50:42.058Z,10.10
2022-11-01T04:53:10.229Z,10.02
2022-11-01T04:55:37.317Z,10.06
2022-11-01T04:58:04.812Z,9.98
2022-11-01T05:00:33.133Z,9.89
2022-11-01T05:03:05.982Z,9.82
2022-11-01T05:05:33.975Z,9.83
2022-11-01T05:08:05.886Z,9.81
2022-11-01T05:10:34.226Z,9.72
2022-11-01T05:13:02.178Z,9.73
2022-11-01T05:15:29.193Z,9.70
2022-11-01T05:17:56.664Z,9.68
2022-11-01T05:20:23.735Z,9.68
2022-11-01T05:22:50.565Z,9.63
2022-11-01T05:25:17.943Z,9.65
2022-11-01T05:27:44.789Z,9.72
2022-11-01T05:30:12.567Z,9.73
2022-11-01T05:32:39.386Z,9.82
2022-11-01T05:35:07.152Z,9.90
2022-11-01T05:37:35.797Z,9.92
2022-11-01T05:40:03.666Z,9.98
2022-11-01T05:42:30.426Z,10.01
2022-11-01T05:44:57.301Z,10.00
2022-11-01T05:47:24.066Z,10.02
2022-11-01T05:49:50.824Z,9.92
2022-11-01T05:52:17.607Z,9.91
2022-11-01T05:54:44.418Z,10.01
2022-11-01T05:57:11.236Z,10.03
2022-11-01T05:59:38.002Z,9.98
2022-11-01T06:02:04.881Z,9.93
2022-11-01T06:04:31.729Z,9.95
2022-11-01T06:06:58.529Z,10.01
2022-11-01T06:09:25.301Z,10.07
2022-11-01T06:11:52.256Z,10.19
2022-11-01T06:14:19.111Z,10.28
2022-11-01T06:16:45.922Z,10.18
2022-11-01T06:19:12.831Z,10.15
2022-11-01T06:21:39.616Z,10.14
2022-11-01T06:24:06.674Z,10.17
2022-11-01T06:26:33.483Z,10.22
2022-11-01T06:29:02.234Z,10.35
2022-11-01T06:31:29.145Z,10.47
2022-11-01T06:33:55.936Z,10.61
2022-11-01T06:36:23.237Z,10.72
2022-11-01T06:38:50.291Z,10.85
2022-11-01T06:41:17.374Z,10.98
2022-11-01T06:43:44.195Z,11.09
2022-11-01T06:46:11.004Z,11.16
2022-11-01T06:48:37.836Z,11.25
2022-11-01T06:51:05.590Z,11.24
2022-11-01T06:53:32.559Z,11.31
2022-11-01T06:56:01.028Z,11.30
2022-11-01T06:58:28.378Z,11.39
2022-11-01T07:00:55.273Z,11.48
2022-11-01T07:03:22.110Z,11.48
2022-11-01T07:05:50.052Z,11.53
2022-11-01T07:08:17.295Z,11.69
2022-11-01T07:10:44.374Z,11.84
2022-11-01T07:13:13.936Z,11.96
2022-11-01T07:15:41.287Z,12.07
2022-11-01T07:18:08.744Z,12.13
2022-11-01T07:20:41.924Z,12.25
2022-11-01T07:23:15.873Z,12.42
2022-11-01T07:25:43.753Z,12.59
2022-11-01T07:28:10.959Z,12.68
2022-11-01T07:30:37.846Z,12.96
2022-11-01T07:33:05.535Z,13.21
2022-11-01T07:35:34.077Z,13.50
2022-11-01T07:38:03.832Z,13.75
2022-11-01T07:40:33.432Z,13.96
2022-11-01T07:43:01.315Z,14.06
2022-11-01T07:45:31.413Z,14.08
2022-11-01T07:48:05.196Z,14.12
2022-11-01T07:50:34.053Z,14.21
2022-11-01T07:53:05.883Z,14.38
2022-11-01T07:55:33.223Z,14.67
2022-11-01T07:58:00.312Z,15.12
2022-11-01T08:00:28.019Z,15.81
2022-11-01T08:03:06.727Z,16.78
2022-11-01T08:05:34.860Z,17.44
2022-11-01T08:08:02.347Z,17.98
2022-11-01T08:10:30.103Z,18.02
2022-11-01T08:13:06.736Z,18.66
2022-11-01T08:15:34.550Z,19.29
2022-11-01T08:18:02.085Z,20.02
2022-11-01T08:20:29.966Z,20.45
2022-11-01T08:22:57.927Z,20.18
2022-11-01T08:25:25.123Z,19.75
2022-11-01T08:27:52.421Z,19.60
2022-11-01T08:30:20.818Z,19.15
2022-11-01T08:32:47.666Z,18.82
2022-11-01T08:35:14.778Z,18.41
2022-11-01T08:37:52.478Z,18.13
2022-11-01T08:40:20.949Z,18.15
2022-11-01T08:42:48.714Z,18.19
2022-11-01T08:45:16.186Z,18.10
2022-11-01T08:47:43.530Z,18.00
2022-11-01T08:50:13.541Z,18.08
2022-11-01T08:52:41.124Z,17.95
2022-11-01T08:55:09.518Z,18.08
2022-11-01T08:57:36.427Z,18.09
2022-11-01T09:00:07.107Z,18.60
2022-11-01T09:02:34.383Z,19.08
2022-11-01T09:05:05.048Z,19.74
2022-11-01T09:07:36.200Z,20.22
2022-11-01T09:10:04.224Z,20.40
2022-11-01T09:12:31.204Z,19.01
2022-11-01T09:14:58.136Z,20.44
2022-11-01T09:17:24.994Z,20.99
2022-11-01T09:19:51.937Z,20.31
2022-11-01T09:22:18.809Z,19.90
2022-11-01T09:24:45.647Z,19.77
2022-11-01T09:27:12.683Z,20.08
2022-11-01T09:29:40.502Z,20.23
2022-11-01T09:32:07.274Z,20.07
2022-11-01T09:34:35.013Z,20.10
2022-11-01T09:37:02.245Z,20.12
2022-11-01T09:39:29.023Z,20.21
2022-11-01T09:42:13.343Z,20.40
2022-11-01T09:44:45.110Z,20.46
2022-11-01T09:47:22.427Z,20.62
2022-11-01T09:50:17.595Z,20.68
2022-11-01T09:52:44.631Z,20.55
2022-11-01T09:55:17.747Z,20.63
2022-11-01T09:57:55.569Z,20.40
2022-11-01T10:00:22.661Z,20.25
2022-11-01T10:03:30.086Z,19.87
2022-11-01T10:06:16.208Z,20.21
2022-11-01T10:09:46.262Z,20.49
2022-11-01T10:13:10.752Z,20.69
2022-11-01T10:16:03.228Z,20.85
2022-11-01T10:18:32.648Z,21.23
2022-11-01T10:21:12.536Z,21.38
2022-11-01T10:23:45.014Z,21.13
2022-11-01T10:26:20.971Z,21.54
2022-11-01T10:29:06.565Z,21.53
2022-11-01T10:31:41.139Z,21.98
2022-11-01T10:34:24.603Z,22.13
2022-11-01T10:36:56.179Z,22.06
2022-11-01T10:42:18.773Z,22.08
2022-11-01T10:44:57.317Z,21.89
2022-11-01T10:47:24.968Z,22.05
2022-11-01T10:50:12.131Z,21.58
2022-11-01T10:52:56.119Z,21.20
2022-11-01T10:55:39.988Z,21.58
2022-11-01T10:58:30.583Z,21.38
2022-11-01T11:00:57.633Z,21.08
2022-11-01T11:03:31.079Z,20.92
2022-11-01T11:06:04.869Z,21.44
2022-11-01T11:08:33.367Z,21.81
2022-11-01T11:11:15.314Z,21.81
2022-11-01T11:13:53.270Z,22.43
2022-11-01T11:16:37.674Z,22.83
2022-11-01T11:19:21.052Z,23.61
2022-11-01T11:21:50.470Z,23.93
2022-11-01T11:24:25.037Z,23.97
2022-11-01T11:26:55.580Z,24.51
2022-11-01T11:29:41.232Z,24.66
2022-11-01T11:32:38.752Z,24.32
2022-11-01T11:35:16.875Z,24.29
2022-11-01T11:38:06.294Z,23.82
2022-11-01T11:40:39.540Z,23.46
2022-11-01T11:43:33.882Z,24.10
2022-11-01T11:46:21.016Z,24.26
2022-11-01T11:48:57.237Z,24.13
2022-11-01T11:51:28.875Z,24.40
2022-11-01T11:54:22.123Z,24.80
2022-11-01T11:57:11.740Z,24.87
2022-11-01T11:59:41.053Z,25.58
2022-11-01T12:02:27.642Z,24.50
2022-11-01T12:05:08.478Z,24.47
2022-11-01T12:07:49.021Z,24.21
2022-11-01T12:10:39.920Z,23.95
2022-11-01T12:13:33.915Z,23.91
2022-11-01T12:16:16.850Z,23.90
2022-11-01T12:18:47.742Z,23.91
2022-11-01T12:21:33.643Z,23.62
2022-11-01T12:24:18.400Z,24.01
2022-11-01T12:26:46.664Z,24.61
2022-11-01T12:29:41.456Z,25.62
2022-11-01T12:32:20.820Z,26.40
2022-11-01T12:34:50.154Z,27.05
2022-11-01T12:37:47.650Z,26.72
2022-11-01T12:40:36.360Z,25.46
2022-11-01T12:43:16.539Z,24.12
2022-11-01T12:45:55.300Z,23.31
2022-11-01T12:48:53.338Z,22.94
2022-11-01T12:51:29.170Z,22.96
2022-11-01T12:54:15.288Z,22.80
2022-11-01T12:56:42.113Z,22.70
2022-11-01T12:59:13.158Z,22.58
2022-11-01T13:01:42.663Z,22.60
2022-11-01T13:04:28.958Z,22.61
2022-11-01T13:07:15.964Z,22.78
2022-11-01T13:10:05.396Z,22.81
2022-11-01T13:13:20.727Z,22.94
2022-11-01T13:16:02.405Z,23.17
2022-11-01T13:19:05.719Z,23.47
2022-11-01T13:21:54.101Z,23.99
2022-11-01T13:24:47.101Z,24.46
2022-11-01T13:27:23.560Z,24.64
2022-11-01T13:29:59.214Z,23.84
2022-11-01T13:32:44.578Z,23.69
2022-11-01T13:35:32.000Z,23.41
2022-11-01T13:38:22.807Z,22.85
2022-11-01T13:41:07.610Z,22.95
2022-11-01T13:43:58.972Z,22.72
2022-11-01T13:47:02.611Z,22.47
2022-11-01T13:49:45.207Z,22.56
2022-11-01T13:52:26.668Z,22.48
2022-11-01T13:55:18.341Z,22.49
2022-11-01T13:57:45.450Z,22.44
2022-11-01T14:00:41.427Z,22.03
2022-11-01T14:03:30.548Z,21.76
2022-11-01T14:06:09.567Z,21.60
2022-11-01T14:09:26.097Z,21.60
2022-11-01T14:11:58.553Z,21.43
2022-11-01T14:14:31.385Z,21.32
2022-11-01T14:17:16.549Z,21.19
2022-11-01T14:19:45.103Z,21.11
2022-11-01T14:22:27.508Z,21.06
2022-11-01T14:24:58.461Z,21.06
2022-11-01T14:27:37.424Z,20.93
2022-11-01T14:30:26.024Z,20.90
2022-11-01T14:33:00.985Z,20.94
2022-11-01T14:35:33.475Z,20.96
2022-11-01T14:38:07.208Z,20.88
2022-11-01T14:40:49.377Z,20.72
2022-11-01T14:43:33.341Z,20.75
2022-11-01T14:46:22.741Z,20.73
2022-11-01T14:49:01.713Z,20.64
2022-11-01T14:52:03.592Z,20.55
2022-11-01T14:54:58.135Z,20.44
2022-11-01T14:57:31.923Z,20.52
2022-11-01T15:00:12.795Z,20.42
2022-11-01T15:02:40.242Z,20.24
2022-11-01T15:05:13.776Z,20.15
2022-11-01T15:07:42.121Z,20.11
2022-11-01T15:10:12.502Z,20.10
2022-11-01T15:13:02.299Z,20.02
2022-11-01T15:15:35.970Z,19.95
2022-11-01T15:18:15.069Z,19.88
2022-11-01T15:20:47.888Z,19.86
2022-11-01T15:23:40.397Z,19.81
2022-11-01T15:26:14.758Z,19.74
2022-11-01T15:29:04.126Z,19.63
2022-11-01T15:31:34.849Z,19.58
2022-11-01T15:34:25.285Z,19.54
2022-11-01T15:36:52.658Z,19.46
2022-11-01T15:39:24.287Z,19.36
2022-11-01T15:41:54.668Z,19.31
2022-11-01T15:44:29.652Z,19.25
2022-11-01T15:47:02.240Z,19.15
2022-11-01T15:49:48.361Z,19.09
2022-11-01T15:52:22.947Z,19.03
2022-11-01T15:55:26.143Z,18.95
2022-11-01T15:57:55.823Z,18.90
2022-11-01T16:00:36.111Z,18.81
2022-11-01T16:03:17.560Z,18.88
2022-11-01T16:05:59.933Z,18.88
2022-11-01T16:08:39.571Z,18.82
2022-11-01T16:11:07.499Z,18.83
2022-11-01T16:13:34.888Z,18.78
2022-11-01T16:16:12.552Z,18.76
2022-11-01T16:18:45.006Z,18.77
2022-11-01T16:21:21.258Z,18.71
2022-11-01T16:24:11.110Z,18.64
2022-11-01T16:27:00.293Z,18.60
2022-11-01T16:29:51.419Z,18.51
2022-11-01T16:32:35.797Z,18.51
2022-11-01T16:35:32.845Z,18.48
2022-11-01T16:38:00.913Z,18.44
2022-11-01T16:40:31.968Z,18.34
2022-11-01T16:42:59.730Z,18.30
2022-11-01T16:45:27.103Z,18.28
2022-11-01T16:47:58.280Z,18.18
2022-11-01T16:50:26.129Z,18.11
2022-11-01T16:52:52.909Z,18.04
2022-11-01T16:55:22.677Z,17.98
2022-11-01T16:57:53.043Z,18.01
2022-11-01T17:00:19.881Z,17.96
2022-11-01T17:02:47.909Z,17.99
2022-11-01T17:05:20.939Z,18.05
2022-11-01T17:07:47.950Z,18.03
2022-11-01T17:10:19.682Z,18.05
2022-11-01T17:12:46.723Z,18.05
2022-11-01T17:15:15.405Z,18.02
2022-11-01T17:17:45.766Z,17.96
2022-11-01T17:20:23.804Z,17.94
2022-11-01T17:22:52.220Z,17.93
2022-11-01T17:25:20.264Z,17.94
2022-11-01T17:27:51.039Z,17.89
2022-11-01T17:30:19.665Z,17.78
2022-11-01T17:32:46.909Z,17.74
2022-11-01T17:35:15.147Z,17.76
2022-11-01T17:37:42.594Z,17.75
2022-11-01T17:40:21.988Z,17.75
2022-11-01T17:42:48.788Z,17.77
2022-11-01T17:45:15.637Z,17.74
2022-11-01T17:47:42.430Z,17.67
2022-11-01T17:50:15.418Z,17.53
2022-11-01T17:52:43.204Z,17.51
2022-11-01T17:55:11.643Z,17.44
2022-11-01T17:57:40.962Z,17.42
2022-11-01T18:00:08.934Z,17.30
2022-11-01T18:02:35.750Z,17.22
2022-11-01T18:05:02.564Z,17.17
2022-11-01T18:07:38.449Z,17.22
2022-11-01T18:10:19.064Z,17.10
2022-11-01T18:13:19.304Z,17.09
2022-11-01T18:16:31.345Z,17.05
2022-11-01T18:19:20.265Z,17.00
2022-11-01T18:22:16.755Z,16.97
2022-11-01T18:24:55.703Z,17.00
2022-11-01T18:27:35.782Z,17.03
2022-11-01T18:30:13.890Z,17.06
2022-11-01T18:33:19.431Z,17.08
2022-11-01T18:35:56.802Z,17.04
2022-11-01T18:39:06.502Z,16.92
2022-11-01T18:41:33.701Z,16.91
2022-11-01T18:44:01.784Z,16.92
2022-11-01T18:46:44.399Z,16.93
2022-11-01T18:49:12.861Z,16.91
2022-11-01T18:51:40.664Z,16.87
2022-11-01T18:54:11.946Z,16.88
2022-11-01T18:56:41.200Z,16.87
2022-11-01T18:59:30.621Z,16.78
2022-11-01T19:02:18.364Z,16.77
2022-11-01T19:04:46.611Z,16.78
2022-11-01T19:07:20.440Z,16.77
2022-11-01T19:10:03.149Z,16.75
2022-11-01T19:12:39.297Z,16.74
2022-11-01T19:15:21.218Z,16.66
2022-11-01T19:17:59.563Z,16.61
2022-11-01T19:20:38.786Z,16.56
2022-11-01T19:23:16.250Z,16.50
2022-11-01T19:25:43.961Z,16.43
2022-11-01T19:28:34.962Z,16.38
2022-11-01T19:31:20.360Z,16.33
2022-11-01T19:33:50.338Z,16.23
2022-11-01T19:36:23.097Z,16.16
2022-11-01T19:38:51.371Z,16.06
2022-11-01T19:41:33.200Z,15.94
2022-11-01T19:44:12.472Z,15.74
2022-11-01T19:46:39.399Z,15.64
2022-11-01T19:49:24.433Z,15.55
2022-11-01T19:52:27.132Z,15.44
2022-11-01T19:54:55.223Z,15.36
2022-11-01T19:57:37.437Z,15.25
2022-11-01T20:00:17.954Z,15.14
2022-11-01T20:02:45.510Z,15.05
2022-11-01T20:05:33.403Z,14.90
2022-11-01T20:08:21.955Z,14.76
2022-11-01T20:10:48.990Z,14.79
2022-11-01T20:13:15.891Z,14.79
2022-11-01T20:15:42.904Z,14.76
2022-11-01T20:18:10.765Z,14.71
2022-11-01T20:20:37.786Z,14.65
2022-11-01T20:23:25.226Z,14.60
2022-11-01T20:25:51.807Z,14.58
2022-11-01T20:28:18.667Z,14.54
2022-11-01T20:30:45.474Z,14.62
2022-11-01T20:33:13.329Z,14.61
2022-11-01T20:35:40.145Z,14.62
2022-11-01T20:38:07.179Z,14.64
2022-11-01T20:40:34.074Z,14.58
2022-11-01T20:43:01.323Z,14.56
2022-11-01T20:45:28.404Z,14.52
2022-11-01T20:47:55.330Z,14.42
2022-11-01T20:50:22.136Z,14.40
2022-11-01T20:52:49.504Z,14.34
2022-11-01T20:55:17.090Z,14.35
2022-11-01T20:57:44.126Z,14.38
2022-11-01T21:00:18.030Z,14.39
2022-11-01T21:02:46.680Z,14.37
2022-11-01T21:05:30.071Z,14.32
2022-11-01T21:08:25.942Z,14.28
2022-11-01T21:11:02.192Z,14.18
2022-11-01T21:13:36.402Z,14.10
2022-11-01T21:16:08.674Z,14.02
2022-11-01T21:18:38.868Z,13.94
2022-11-01T21:21:14.704Z,13.96
2022-11-01T21:23:46.171Z,13.86
2022-11-01T21:26:33.905Z,13.83
2022-11-01T21:29:16.269Z,13.74
2022-11-01T21:31:43.203Z,13.65
2022-11-01T21:34:10.063Z,13.61
2022-11-01T21:36:48.576Z,13.56
2022-11-01T21:39:23.991Z,13.46
2022-11-01T21:41:54.941Z,13.45
2022-11-01T21:44:26.802Z,13.45
2022-11-01T21:47:11.818Z,13.41
2022-11-01T21:49:38.783Z,13.38
2022-11-01T21:52:08.297Z,13.33
2022-11-01T21:54:37.623Z,13.30
2022-11-01T21:57:07.079Z,13.25
2022-11-01T21:59:34.357Z,13.18
2022-11-01T22:02:02.361Z,13.20
2022-11-01T22:04:31.013Z,13.18
2022-11-01T22:07:03.817Z,13.13
2022-11-01T22:09:31.852Z,13.09
2022-11-01T22:12:01.812Z,13.05
2022-11-01T22:14:28.718Z,12.94
2022-11-01T22:16:55.691Z,12.94
2022-11-01T22:19:22.646Z,12.88
2022-11-01T22:21:49.443Z,12.84
2022-11-01T22:24:16.225Z,12.85
2022-11-01T22:26:43.035Z,12.88
2022-11-01T22:29:09.807Z,12.84
2022-11-01T22:31:36.600Z,12.84
2022-11-01T22:34:03.391Z,12.82
2022-11-01T22:36:37.048Z,12.82
2022-11-01T22:39:22.750Z,12.78
2022-11-01T22:41:49.917Z,12.68
2022-11-01T22:44:29.832Z,12.67
2022-11-01T22:47:02.084Z,12.59
2022-11-01T22:49:40.778Z,12.57
2022-11-01T22:52:31.869Z,12.50
2022-11-01T22:55:09.922Z,12.49
2022-11-01T22:57:59.669Z,12.51
2022-11-01T23:00:39.752Z,12.42
2022-11-01T23:03:16.355Z,12.40
2022-11-01T23:05:43.413Z,12.36
2022-11-01T23:08:32.417Z,12.25
2022-11-01T23:11:00.314Z,12.34
2022-11-01T23:13:52.004Z,12.35
2022-11-01T23:16:33.312Z,12.30
2022-11-01T23:19:03.433Z,12.27
2022-11-01T23:21:30.269Z,12.29
2022-11-01T23:23:57.167Z,12.31
2022-11-01T23:26:24.478Z,12.37
2022-11-01T23:28:54.298Z,12.41
2022-11-01T23:31:21.792Z,12.44
2022-11-01T23:33:50.131Z,12.37
2022-11-01T23:36:26.210Z,12.38
2022-11-01T23:39:08.865Z,12.29
2022-11-01T23:41:44.103Z,12.21
2022-11-01T23:44:40.162Z,12.25
2022-11-01T23:47:37.909Z,12.28
2022-11-01T23:50:19.947Z,12.22
2022-11-01T23:52:53.906Z,12.10
2022-11-01T23:55:36.308Z,11.99
2022-11-01T23:58:10.790Z,11.78
